sensor_id;sensor_type;location;lat;lon;timestamp;temperature;humidity
52849;DHT22;38714;53.180;5.812;2022-10-30T00:00:37;12.90;99.90
52849;DHT22;38714;53.180;5.812;2022-10-30T00:03:03;12.80;99.90
52849;DHT22;38714;53.180;5.812;2022-10-30T00:05:28;12.90;99.90
52849;DHT22;38714;53.180;5.812;2022-10-30T00:07:55;12.90;99.90
52849;DHT22;38714;53.180;5.812;2022-10-30T00:10:21;12.80;99.90
52849;DHT22;38714;53.180;5.812;2022-10-30T00:12:47;12.80;99.90
52849;DHT22;38714;53.180;5.812;2022-10-30T00:15:13;12.80;99.90
52849;DHT22;38714;53.180;5.812;2022-10-30T00:17:38;12.80;99.90
52849;DHT22;38714;53.180;5.812;2022-10-30T00:20:05;12.80;99.90
52849;DHT22;38714;53.180;5.812;2022-10-30T00:22:30;12.80;99.90
52849;DHT22;38714;53.180;5.812;2022-10-30T00:24:56;12.80;99.90
52849;DHT22;38714;53.180;5.812;2022-10-30T00:27:22;12.80;99.90
52849;DHT22;38714;53.180;5.812;2022-10-30T00:29:47;12.80;99.90
52849;DHT22;38714;53.180;5.812;2022-10-30T00:32:13;12.80;99.90
52849;DHT22;38714;53.180;5.812;2022-10-30T00:34:38;12.80;99.90
52849;DHT22;38714;53.180;5.812;2022-10-30T00:37:04;12.90;99.90
52849;DHT22;38714;53.180;5.812;2022-10-30T00:39:29;12.80;99.90
52849;DHT22;38714;53.180;5.812;2022-10-30T00:41:55;12.90;99.90
52849;DHT22;38714;53.180;5.812;2022-10-30T00:44:41;12.90;99.90
52849;DHT22;38714;53.180;5.812;2022-10-30T00:49:50;12.80;99.90
52849;DHT22;38714;53.180;5.812;2022-10-30T00:52:16;12.90;99.90
52849;DHT22;38714;53.180;5.812;2022-10-30T00:54:42;12.90;99.90
52849;DHT22;38714;53.180;5.812;2022-10-30T00:57:08;12.90;99.90
52849;DHT22;38714;53.180;5.812;2022-10-30T00:59:35;12.90;99.90
52849;DHT22;38714;53.180;5.812;2022-10-30T01:02:04;12.90;99.90
52849;DHT22;38714;53.180;5.812;2022-10-30T01:04:33;12.90;99.90
52849;DHT22;38714;53.180;5.812;2022-10-30T01:07:06;12.80;99.90
52849;DHT22;38714;53.180;5.812;2022-10-30T01:09:34;12.90;99.90
52849;DHT22;38714;53.180;5.812;2022-10-30T01:11:59;12.90;99.90
52849;DHT22;38714;53.180;5.812;2022-10-30T01:14:25;12.90;99.90
52849;DHT22;38714;53.180;5.812;2022-10-30T01:25:34;12.90;99.90
52849;DHT22;38714;53.180;5.812;2022-10-30T01:39:45;12.90;99.90
52849;DHT22;38714;53.180;5.812;2022-10-30T01:45:05;12.90;99.90
52849;DHT22;38714;53.180;5.812;2022-10-30T01:47:40;12.90;99.90
52849;DHT22;38714;53.180;5.812;2022-10-30T01:52:59;12.90;99.90
52849;DHT22;38714;53.180;5.812;2022-10-30T01:55:55;12.90;99.90
52849;DHT22;38714;53.180;5.812;2022-10-30T01:58:35;13.00;99.90
52849;DHT22;38714;53.180;5.812;2022-10-30T02:01:06;13.00;99.90
52849;DHT22;38714;53.180;5.812;2022-10-30T02:03:32;13.00;99.90
52849;DHT22;38714;53.180;5.812;2022-10-30T02:05:57;13.00;99.90
52849;DHT22;38714;53.180;5.812;2022-10-30T02:08:23;13.00;99.90
52849;DHT22;38714;53.180;5.812;2022-10-30T02:10:51;13.00;99.90
52849;DHT22;38714;53.180;5.812;2022-10-30T02:13:17;13.00;99.90
52849;DHT22;38714;53.180;5.812;2022-10-30T02:15:44;13.00;99.90
52849;DHT22;38714;53.180;5.812;2022-10-30T02:18:11;13.10;99.90
52849;DHT22;38714;53.180;5.812;2022-10-30T02:20:37;13.00;99.90
52849;DHT22;38714;53.180;5.812;2022-10-30T02:23:02;13.00;99.90
52849;DHT22;38714;53.180;5.812;2022-10-30T02:25:28;13.00;99.90
52849;DHT22;38714;53.180;5.812;2022-10-30T02:27:54;13.10;99.90
52849;DHT22;38714;53.180;5.812;2022-10-30T02:30:19;13.00;99.90
52849;DHT22;38714;53.180;5.812;2022-10-30T02:32:45;13.10;99.90
52849;DHT22;38714;53.180;5.812;2022-10-30T02:35:11;13.10;99.90
52849;DHT22;38714;53.180;5.812;2022-10-30T02:37:36;13.10;99.90
52849;DHT22;38714;53.180;5.812;2022-10-30T02:40:03;13.10;99.90
52849;DHT22;38714;53.180;5.812;2022-10-30T02:42:29;13.10;99.90
52849;DHT22;38714;53.180;5.812;2022-10-30T02:44:54;13.10;99.90
52849;DHT22;38714;53.180;5.812;2022-10-30T02:47:20;13.10;99.90
52849;DHT22;38714;53.180;5.812;2022-10-30T02:49:45;13.10;99.90
52849;DHT22;38714;53.180;5.812;2022-10-30T02:52:11;13.10;99.90
52849;DHT22;38714;53.180;5.812;2022-10-30T02:54:37;13.10;99.90
52849;DHT22;38714;53.180;5.812;2022-10-30T02:57:02;13.10;99.90
52849;DHT22;38714;53.180;5.812;2022-10-30T02:59:28;13.10;99.90
52849;DHT22;38714;53.180;5.812;2022-10-30T03:01:54;13.00;99.90
52849;DHT22;38714;53.180;5.812;2022-10-30T03:04:20;13.10;99.90
52849;DHT22;38714;53.180;5.812;2022-10-30T03:06:45;13.00;99.90
52849;DHT22;38714;53.180;5.812;2022-10-30T03:09:11;13.00;99.90
52849;DHT22;38714;53.180;5.812;2022-10-30T03:11:36;13.00;99.90
52849;DHT22;38714;53.180;5.812;2022-10-30T03:14:02;13.00;99.90
52849;DHT22;38714;53.180;5.812;2022-10-30T03:16:28;13.00;99.90
52849;DHT22;38714;53.180;5.812;2022-10-30T03:18:58;13.00;99.90
52849;DHT22;38714;53.180;5.812;2022-10-30T03:21:26;13.00;99.90
52849;DHT22;38714;53.180;5.812;2022-10-30T03:23:53;13.00;99.90
52849;DHT22;38714;53.180;5.812;2022-10-30T03:26:19;13.00;99.90
52849;DHT22;38714;53.180;5.812;2022-10-30T03:28:45;13.00;99.90
52849;DHT22;38714;53.180;5.812;2022-10-30T03:31:13;13.00;99.90
52849;DHT22;38714;53.180;5.812;2022-10-30T03:33:39;13.00;99.90
52849;DHT22;38714;53.180;5.812;2022-10-30T03:36:07;13.00;99.90
52849;DHT22;38714;53.180;5.812;2022-10-30T03:38:33;13.00;99.90
52849;DHT22;38714;53.180;5.812;2022-10-30T03:40:59;13.00;99.90
52849;DHT22;38714;53.180;5.812;2022-10-30T03:43:25;13.00;99.90
52849;DHT22;38714;53.180;5.812;2022-10-30T03:45:52;13.00;99.90
52849;DHT22;38714;53.180;5.812;2022-10-30T03:48:20;13.00;99.90
52849;DHT22;38714;53.180;5.812;2022-10-30T03:50:46;13.00;99.90
52849;DHT22;38714;53.180;5.812;2022-10-30T03:53:13;13.00;99.90
52849;DHT22;38714;53.180;5.812;2022-10-30T03:55:39;13.00;99.90
52849;DHT22;38714;53.180;5.812;2022-10-30T03:58:05;12.90;99.90
52849;DHT22;38714;53.180;5.812;2022-10-30T04:00:32;13.00;99.90
52849;DHT22;38714;53.180;5.812;2022-10-30T04:02:58;13.00;99.90
52849;DHT22;38714;53.180;5.812;2022-10-30T04:05:24;13.00;99.90
52849;DHT22;38714;53.180;5.812;2022-10-30T04:07:58;12.90;99.90
52849;DHT22;38714;53.180;5.812;2022-10-30T04:10:24;13.00;99.90
52849;DHT22;38714;53.180;5.812;2022-10-30T04:12:50;12.90;99.90
52849;DHT22;38714;53.180;5.812;2022-10-30T04:15:17;12.90;99.90
52849;DHT22;38714;53.180;5.812;2022-10-30T04:17:50;12.90;99.90
52849;DHT22;38714;53.180;5.812;2022-10-30T04:20:17;12.90;99.90
52849;DHT22;38714;53.180;5.812;2022-10-30T04:22:43;12.90;99.90
52849;DHT22;38714;53.180;5.812;2022-10-30T04:25:08;12.90;99.90
52849;DHT22;38714;53.180;5.812;2022-10-30T04:27:41;12.90;99.90
52849;DHT22;38714;53.180;5.812;2022-10-30T04:30:09;12.80;99.90
52849;DHT22;38714;53.180;5.812;2022-10-30T04:32:35;12.80;99.90
52849;DHT22;38714;53.180;5.812;2022-10-30T04:35:00;12.80;99.90
52849;DHT22;38714;53.180;5.812;2022-10-30T04:37:28;12.70;99.90
52849;DHT22;38714;53.180;5.812;2022-10-30T04:39:53;12.70;99.90
52849;DHT22;38714;53.180;5.812;2022-10-30T04:42:19;12.70;99.90
52849;DHT22;38714;53.180;5.812;2022-10-30T04:44:44;12.70;99.90
52849;DHT22;38714;53.180;5.812;2022-10-30T04:47:10;12.70;99.90
52849;DHT22;38714;53.180;5.812;2022-10-30T04:49:36;12.70;99.90
52849;DHT22;38714;53.180;5.812;2022-10-30T04:52:01;12.60;99.90
52849;DHT22;38714;53.180;5.812;2022-10-30T04:54:27;12.70;99.90
52849;DHT22;38714;53.180;5.812;2022-10-30T04:56:53;12.60;99.90
52849;DHT22;38714;53.180;5.812;2022-10-30T04:59:18;12.60;99.90
52849;DHT22;38714;53.180;5.812;2022-10-30T05:01:44;12.60;99.90
52849;DHT22;38714;53.180;5.812;2022-10-30T05:04:10;12.60;99.90
52849;DHT22;38714;53.180;5.812;2022-10-30T05:06:35;12.60;99.90
52849;DHT22;38714;53.180;5.812;2022-10-30T05:09:01;12.60;99.90
52849;DHT22;38714;53.180;5.812;2022-10-30T05:11:26;12.60;99.90
52849;DHT22;38714;53.180;5.812;2022-10-30T05:13:52;12.60;99.90
52849;DHT22;38714;53.180;5.812;2022-10-30T05:16:17;12.60;99.90
52849;DHT22;38714;53.180;5.812;2022-10-30T05:18:44;12.60;99.90
52849;DHT22;38714;53.180;5.812;2022-10-30T05:21:10;12.50;99.90
52849;DHT22;38714;53.180;5.812;2022-10-30T05:23:35;12.50;99.90
52849;DHT22;38714;53.180;5.812;2022-10-30T05:26:01;12.50;99.90
52849;DHT22;38714;53.180;5.812;2022-10-30T05:28:27;12.50;99.90
52849;DHT22;38714;53.180;5.812;2022-10-30T05:30:53;12.50;99.90
52849;DHT22;38714;53.180;5.812;2022-10-30T05:33:19;12.50;99.90
52849;DHT22;38714;53.180;5.812;2022-10-30T05:35:44;12.50;99.90
52849;DHT22;38714;53.180;5.812;2022-10-30T05:38:11;12.50;99.90
52849;DHT22;38714;53.180;5.812;2022-10-30T05:40:36;12.50;99.90
52849;DHT22;38714;53.180;5.812;2022-10-30T05:43:02;12.50;99.90
52849;DHT22;38714;53.180;5.812;2022-10-30T05:45:28;12.50;99.90
52849;DHT22;38714;53.180;5.812;2022-10-30T05:47:58;12.50;99.90
52849;DHT22;38714;53.180;5.812;2022-10-30T05:50:24;12.40;99.90
52849;DHT22;38714;53.180;5.812;2022-10-30T05:52:55;12.40;99.90
52849;DHT22;38714;53.180;5.812;2022-10-30T05:55:21;12.40;99.90
52849;DHT22;38714;53.180;5.812;2022-10-30T05:57:46;12.40;99.90
52849;DHT22;38714;53.180;5.812;2022-10-30T06:00:12;12.30;99.90
52849;DHT22;38714;53.180;5.812;2022-10-30T06:02:38;12.30;99.90
52849;DHT22;38714;53.180;5.812;2022-10-30T06:05:04;12.30;99.90
52849;DHT22;38714;53.180;5.812;2022-10-30T06:07:30;12.30;99.90
52849;DHT22;38714;53.180;5.812;2022-10-30T06:09:55;12.20;99.90
52849;DHT22;38714;53.180;5.812;2022-10-30T06:12:21;12.20;99.90
52849;DHT22;38714;53.180;5.812;2022-10-30T06:14:46;12.20;99.90
52849;DHT22;38714;53.180;5.812;2022-10-30T06:17:12;12.10;99.90
52849;DHT22;38714;53.180;5.812;2022-10-30T06:19:37;12.10;99.90
52849;DHT22;38714;53.180;5.812;2022-10-30T06:22:03;12.10;99.90
52849;DHT22;38714;53.180;5.812;2022-10-30T06:24:29;12.10;99.90
52849;DHT22;38714;53.180;5.812;2022-10-30T06:26:54;12.10;99.90
52849;DHT22;38714;53.180;5.812;2022-10-30T06:29:20;12.10;99.90
52849;DHT22;38714;53.180;5.812;2022-10-30T06:31:45;12.10;99.90
52849;DHT22;38714;53.180;5.812;2022-10-30T06:34:11;12.10;99.90
52849;DHT22;38714;53.180;5.812;2022-10-30T06:36:36;12.10;99.90
52849;DHT22;38714;53.180;5.812;2022-10-30T06:39:02;12.00;99.90
52849;DHT22;38714;53.180;5.812;2022-10-30T06:41:27;12.00;99.90
52849;DHT22;38714;53.180;5.812;2022-10-30T06:43:53;12.00;99.90
52849;DHT22;38714;53.180;5.812;2022-10-30T06:46:18;12.00;99.90
52849;DHT22;38714;53.180;5.812;2022-10-30T06:48:44;12.00;99.90
52849;DHT22;38714;53.180;5.812;2022-10-30T06:51:10;12.00;99.90
52849;DHT22;38714;53.180;5.812;2022-10-30T06:53:38;12.00;99.90
52849;DHT22;38714;53.180;5.812;2022-10-30T06:56:04;12.00;99.90
52849;DHT22;38714;53.180;5.812;2022-10-30T06:58:29;12.00;99.90
52849;DHT22;38714;53.180;5.812;2022-10-30T07:00:58;12.00;99.90
52849;DHT22;38714;53.180;5.812;2022-10-30T07:03:26;12.00;99.90
52849;DHT22;38714;53.180;5.812;2022-10-30T07:05:52;12.00;99.90
52849;DHT22;38714;53.180;5.812;2022-10-30T07:08:17;12.00;99.90
52849;DHT22;38714;53.180;5.812;2022-10-30T07:10:43;12.00;99.90
52849;DHT22;38714;53.180;5.812;2022-10-30T07:13:09;12.00;99.90
52849;DHT22;38714;53.180;5.812;2022-10-30T07:15:34;12.00;99.90
52849;DHT22;38714;53.180;5.812;2022-10-30T07:18:01;12.00;99.90
52849;DHT22;38714;53.180;5.812;2022-10-30T07:20:29;12.00;99.90
52849;DHT22;38714;53.180;5.812;2022-10-30T07:22:55;12.00;99.90
52849;DHT22;38714;53.180;5.812;2022-10-30T07:25:21;12.00;99.90
52849;DHT22;38714;53.180;5.812;2022-10-30T07:27:48;12.00;99.90
52849;DHT22;38714;53.180;5.812;2022-10-30T07:30:15;12.00;99.90
52849;DHT22;38714;53.180;5.812;2022-10-30T07:32:41;12.00;99.90
52849;DHT22;38714;53.180;5.812;2022-10-30T07:35:08;12.00;99.90
52849;DHT22;38714;53.180;5.812;2022-10-30T07:37:34;12.10;99.90
52849;DHT22;38714;53.180;5.812;2022-10-30T07:40:00;12.10;99.90
52849;DHT22;38714;53.180;5.812;2022-10-30T07:42:25;12.10;99.90
52849;DHT22;38714;53.180;5.812;2022-10-30T07:44:51;12.10;99.90
52849;DHT22;38714;53.180;5.812;2022-10-30T07:47:16;12.10;99.90
52849;DHT22;38714;53.180;5.812;2022-10-30T07:49:42;12.20;99.90
52849;DHT22;38714;53.180;5.812;2022-10-30T07:52:07;12.20;99.90
52849;DHT22;38714;53.180;5.812;2022-10-30T07:54:33;12.20;99.90
52849;DHT22;38714;53.180;5.812;2022-10-30T07:56:58;12.20;99.90
52849;DHT22;38714;53.180;5.812;2022-10-30T07:59:24;12.30;99.90
52849;DHT22;38714;53.180;5.812;2022-10-30T08:01:50;12.30;99.90
52849;DHT22;38714;53.180;5.812;2022-10-30T08:04:16;12.30;99.90
52849;DHT22;38714;53.180;5.812;2022-10-30T08:06:42;12.40;99.90
52849;DHT22;38714;53.180;5.812;2022-10-30T08:09:08;12.40;99.90
52849;DHT22;38714;53.180;5.812;2022-10-30T08:11:34;12.40;99.90
52849;DHT22;38714;53.180;5.812;2022-10-30T08:13:59;12.40;99.90
52849;DHT22;38714;53.180;5.812;2022-10-30T08:16:25;12.50;99.90
52849;DHT22;38714;53.180;5.812;2022-10-30T08:18:51;12.50;99.90
52849;DHT22;38714;53.180;5.812;2022-10-30T08:21:17;12.50;99.90
52849;DHT22;38714;53.180;5.812;2022-10-30T08:23:43;12.60;99.90
52849;DHT22;38714;53.180;5.812;2022-10-30T08:26:08;12.60;99.90
52849;DHT22;38714;53.180;5.812;2022-10-30T08:28:34;12.70;99.90
52849;DHT22;38714;53.180;5.812;2022-10-30T08:31:00;12.70;99.90
52849;DHT22;38714;53.180;5.812;2022-10-30T08:33:27;12.80;99.90
52849;DHT22;38714;53.180;5.812;2022-10-30T08:35:55;12.80;99.90
52849;DHT22;38714;53.180;5.812;2022-10-30T08:38:21;12.80;99.90
52849;DHT22;38714;53.180;5.812;2022-10-30T08:40:47;12.90;99.90
52849;DHT22;38714;53.180;5.812;2022-10-30T08:43:13;13.00;99.90
52849;DHT22;38714;53.180;5.812;2022-10-30T08:45:39;13.00;99.90
52849;DHT22;38714;53.180;5.812;2022-10-30T08:48:05;13.10;99.90
52849;DHT22;38714;53.180;5.812;2022-10-30T08:50:32;13.10;99.90
52849;DHT22;38714;53.180;5.812;2022-10-30T08:53:03;13.10;99.90
52849;DHT22;38714;53.180;5.812;2022-10-30T08:55:30;13.20;99.90
52849;DHT22;38714;53.180;5.812;2022-10-30T08:57:56;13.20;99.90
52849;DHT22;38714;53.180;5.812;2022-10-30T09:00:22;13.30;99.90
52849;DHT22;38714;53.180;5.812;2022-10-30T09:02:48;13.30;99.90
52849;DHT22;38714;53.180;5.812;2022-10-30T09:05:13;13.40;99.90
52849;DHT22;38714;53.180;5.812;2022-10-30T09:07:39;13.40;99.90
52849;DHT22;38714;53.180;5.812;2022-10-30T09:10:05;13.50;99.90
52849;DHT22;38714;53.180;5.812;2022-10-30T09:12:31;13.50;99.90
52849;DHT22;38714;53.180;5.812;2022-10-30T09:14:56;13.50;99.90
52849;DHT22;38714;53.180;5.812;2022-10-30T09:17:22;13.60;99.90
52849;DHT22;38714;53.180;5.812;2022-10-30T09:19:47;13.60;99.90
52849;DHT22;38714;53.180;5.812;2022-10-30T09:22:13;13.60;99.90
52849;DHT22;38714;53.180;5.812;2022-10-30T09:24:39;13.60;99.90
52849;DHT22;38714;53.180;5.812;2022-10-30T09:27:05;13.70;99.90
52849;DHT22;38714;53.180;5.812;2022-10-30T09:29:30;13.70;99.90
52849;DHT22;38714;53.180;5.812;2022-10-30T09:31:57;13.80;99.90
52849;DHT22;38714;53.180;5.812;2022-10-30T09:34:23;13.80;99.90
52849;DHT22;38714;53.180;5.812;2022-10-30T09:36:48;13.80;99.90
52849;DHT22;38714;53.180;5.812;2022-10-30T09:39:14;13.90;99.90
52849;DHT22;38714;53.180;5.812;2022-10-30T09:52:28;14.00;99.90
52849;DHT22;38714;53.180;5.812;2022-10-30T09:55:17;14.10;99.90
52849;DHT22;38714;53.180;5.812;2022-10-30T09:58:10;14.20;99.90
52849;DHT22;38714;53.180;5.812;2022-10-30T10:00:51;14.20;99.90
52849;DHT22;38714;53.180;5.812;2022-10-30T10:03:56;14.30;99.90
52849;DHT22;38714;53.180;5.812;2022-10-30T10:06:24;14.30;99.90
52849;DHT22;38714;53.180;5.812;2022-10-30T10:09:03;14.40;99.90
52849;DHT22;38714;53.180;5.812;2022-10-30T10:11:37;14.40;99.90
52849;DHT22;38714;53.180;5.812;2022-10-30T10:14:19;14.50;99.90
52849;DHT22;38714;53.180;5.812;2022-10-30T10:16:49;14.50;99.90
52849;DHT22;38714;53.180;5.812;2022-10-30T10:21:50;14.60;99.90
52849;DHT22;38714;53.180;5.812;2022-10-30T10:24:34;14.60;99.90
52849;DHT22;38714;53.180;5.812;2022-10-30T10:27:40;14.70;99.90
52849;DHT22;38714;53.180;5.812;2022-10-30T10:30:14;14.70;99.90
52849;DHT22;38714;53.180;5.812;2022-10-30T10:38:48;14.80;99.90
52849;DHT22;38714;53.180;5.812;2022-10-30T10:41:57;14.90;99.90
52849;DHT22;38714;53.180;5.812;2022-10-30T10:44:37;15.00;99.90
52849;DHT22;38714;53.180;5.812;2022-10-30T10:52:55;15.10;99.90
52849;DHT22;38714;53.180;5.812;2022-10-30T10:55:30;15.10;99.90
52849;DHT22;38714;53.180;5.812;2022-10-30T10:58:03;15.20;99.90
52849;DHT22;38714;53.180;5.812;2022-10-30T11:00:30;15.20;99.90
52849;DHT22;38714;53.180;5.812;2022-10-30T11:05:53;15.30;99.90
52849;DHT22;38714;53.180;5.812;2022-10-30T11:08:27;15.40;99.90
52849;DHT22;38714;53.180;5.812;2022-10-30T11:10:58;15.30;99.90
52849;DHT22;38714;53.180;5.812;2022-10-30T11:13:35;15.40;99.90
52849;DHT22;38714;53.180;5.812;2022-10-30T11:16:20;15.40;99.90
52849;DHT22;38714;53.180;5.812;2022-10-30T11:19:02;15.50;99.90
52849;DHT22;38714;53.180;5.812;2022-10-30T11:21:31;15.50;99.90
52849;DHT22;38714;53.180;5.812;2022-10-30T11:23:59;15.50;99.90
52849;DHT22;38714;53.180;5.812;2022-10-30T11:26:27;15.60;99.90
52849;DHT22;38714;53.180;5.812;2022-10-30T11:31:42;15.70;99.90
52849;DHT22;38714;53.180;5.812;2022-10-30T11:36:47;15.70;99.90
52849;DHT22;38714;53.180;5.812;2022-10-30T11:44:20;15.80;99.90
52849;DHT22;38714;53.180;5.812;2022-10-30T11:46:47;15.90;99.90
52849;DHT22;38714;53.180;5.812;2022-10-30T11:49:35;15.90;99.90
52849;DHT22;38714;53.180;5.812;2022-10-30T11:52:02;15.90;99.90
52849;DHT22;38714;53.180;5.812;2022-10-30T11:54:28;15.90;99.90
52849;DHT22;38714;53.180;5.812;2022-10-30T11:56:55;16.00;99.90
52849;DHT22;38714;53.180;5.812;2022-10-30T11:59:22;16.00;99.90
52849;DHT22;38714;53.180;5.812;2022-10-30T12:02:07;16.00;99.90
52849;DHT22;38714;53.180;5.812;2022-10-30T12:04:43;16.00;99.90
52849;DHT22;38714;53.180;5.812;2022-10-30T12:07:30;16.00;99.90
52849;DHT22;38714;53.180;5.812;2022-10-30T12:09:56;16.10;99.90
52849;DHT22;38714;53.180;5.812;2022-10-30T12:12:29;16.10;99.90
52849;DHT22;38714;53.180;5.812;2022-10-30T12:15:08;16.10;99.90
52849;DHT22;38714;53.180;5.812;2022-10-30T12:17:37;16.10;99.90
52849;DHT22;38714;53.180;5.812;2022-10-30T12:20:04;16.20;99.90
52849;DHT22;38714;53.180;5.812;2022-10-30T12:22:31;16.20;99.90
52849;DHT22;38714;53.180;5.812;2022-10-30T12:25:30;16.20;99.90
52849;DHT22;38714;53.180;5.812;2022-10-30T12:28:17;16.20;99.90
52849;DHT22;38714;53.180;5.812;2022-10-30T12:36:36;16.20;99.90
52849;DHT22;38714;53.180;5.812;2022-10-30T12:39:29;16.30;99.90
52849;DHT22;38714;53.180;5.812;2022-10-30T12:42:07;16.20;99.90
52849;DHT22;38714;53.180;5.812;2022-10-30T12:44:40;16.20;99.90
52849;DHT22;38714;53.180;5.812;2022-10-30T12:47:34;16.30;99.90
52849;DHT22;38714;53.180;5.812;2022-10-30T12:52:48;16.30;99.90
52849;DHT22;38714;53.180;5.812;2022-10-30T12:58:07;16.30;99.90
52849;DHT22;38714;53.180;5.812;2022-10-30T13:04:05;16.40;99.90
52849;DHT22;38714;53.180;5.812;2022-10-30T13:06:38;16.40;99.90
52849;DHT22;38714;53.180;5.812;2022-10-30T13:09:25;16.40;99.90
52849;DHT22;38714;53.180;5.812;2022-10-30T13:14:25;16.30;99.90
52849;DHT22;38714;53.180;5.812;2022-10-30T13:16:53;16.30;99.90
52849;DHT22;38714;53.180;5.812;2022-10-30T13:19:19;16.30;99.90
52849;DHT22;38714;53.180;5.812;2022-10-30T13:22:04;16.30;99.90
52849;DHT22;38714;53.180;5.812;2022-10-30T13:24:43;16.30;99.90
52849;DHT22;38714;53.180;5.812;2022-10-30T13:27:33;16.30;99.90
52849;DHT22;38714;53.180;5.812;2022-10-30T13:30:04;16.30;99.90
52849;DHT22;38714;53.180;5.812;2022-10-30T13:32:38;16.30;99.90
52849;DHT22;38714;53.180;5.812;2022-10-30T13:38:31;16.30;99.90
52849;DHT22;38714;53.180;5.812;2022-10-30T13:44:21;16.40;99.90
52849;DHT22;38714;53.180;5.812;2022-10-30T13:52:18;16.40;99.90
52849;DHT22;38714;53.180;5.812;2022-10-30T13:54:59;16.50;99.90
52849;DHT22;38714;53.180;5.812;2022-10-30T13:57:39;16.50;99.90
52849;DHT22;38714;53.180;5.812;2022-10-30T14:00:18;16.50;99.90
52849;DHT22;38714;53.180;5.812;2022-10-30T14:11:00;16.50;99.90
52849;DHT22;38714;53.180;5.812;2022-10-30T14:13:53;16.50;99.90
52849;DHT22;38714;53.180;5.812;2022-10-30T14:19:16;16.40;99.90
52849;DHT22;38714;53.180;5.812;2022-10-30T14:21:55;16.40;99.90
52849;DHT22;38714;53.180;5.812;2022-10-30T14:24:26;16.40;99.90
52849;DHT22;38714;53.180;5.812;2022-10-30T14:39:49;16.20;99.90
52849;DHT22;38714;53.180;5.812;2022-10-30T14:48:35;16.20;99.90
52849;DHT22;38714;53.180;5.812;2022-10-30T14:53:43;16.10;99.90
52849;DHT22;38714;53.180;5.812;2022-10-30T14:58:41;16.10;99.90
52849;DHT22;38714;53.180;5.812;2022-10-30T15:12:31;16.00;99.90
52849;DHT22;38714;53.180;5.812;2022-10-30T15:15:04;16.00;99.90
52849;DHT22;38714;53.180;5.812;2022-10-30T15:17:45;16.00;99.90
52849;DHT22;38714;53.180;5.812;2022-10-30T15:22:40;15.90;99.90
52849;DHT22;38714;53.180;5.812;2022-10-30T15:25:17;15.90;99.90
52849;DHT22;38714;53.180;5.812;2022-10-30T15:27:49;16.00;99.90
52849;DHT22;38714;53.180;5.812;2022-10-30T15:30:17;15.90;99.90
52849;DHT22;38714;53.180;5.812;2022-10-30T15:32:44;15.90;99.90
52849;DHT22;38714;53.180;5.812;2022-10-30T15:35:16;15.90;99.90
52849;DHT22;38714;53.180;5.812;2022-10-30T15:38:14;15.80;99.90
52849;DHT22;38714;53.180;5.812;2022-10-30T15:40:40;15.80;99.90
52849;DHT22;38714;53.180;5.812;2022-10-30T15:43:10;15.80;99.90
52849;DHT22;38714;53.180;5.812;2022-10-30T15:45:45;15.80;99.90
52849;DHT22;38714;53.180;5.812;2022-10-30T15:51:06;15.80;99.90
52849;DHT22;38714;53.180;5.812;2022-10-30T15:53:37;15.80;99.90
52849;DHT22;38714;53.180;5.812;2022-10-30T15:56:04;15.70;99.90
52849;DHT22;38714;53.180;5.812;2022-10-30T15:58:33;15.70;99.90
52849;DHT22;38714;53.180;5.812;2022-10-30T16:01:01;15.60;99.90
52849;DHT22;38714;53.180;5.812;2022-10-30T16:03:28;15.60;99.90
52849;DHT22;38714;53.180;5.812;2022-10-30T16:06:14;15.60;99.90
52849;DHT22;38714;53.180;5.812;2022-10-30T16:08:47;15.60;99.90
52849;DHT22;38714;53.180;5.812;2022-10-30T16:11:13;15.60;99.90
52849;DHT22;38714;53.180;5.812;2022-10-30T16:13:40;15.50;99.90
52849;DHT22;38714;53.180;5.812;2022-10-30T16:18:42;15.50;99.90
52849;DHT22;38714;53.180;5.812;2022-10-30T16:21:09;15.50;99.90
52849;DHT22;38714;53.180;5.812;2022-10-30T16:23:41;15.50;99.90
52849;DHT22;38714;53.180;5.812;2022-10-30T16:26:31;15.40;99.90
52849;DHT22;38714;53.180;5.812;2022-10-30T16:31:40;15.40;99.90
52849;DHT22;38714;53.180;5.812;2022-10-30T16:34:16;15.40;99.90
52849;DHT22;38714;53.180;5.812;2022-10-30T16:36:42;15.40;99.90
52849;DHT22;38714;53.180;5.812;2022-10-30T16:39:13;15.40;99.90
52849;DHT22;38714;53.180;5.812;2022-10-30T16:41:39;15.50;99.90
52849;DHT22;38714;53.180;5.812;2022-10-30T16:44:19;15.50;99.90
52849;DHT22;38714;53.180;5.812;2022-10-30T16:49:26;15.50;99.90
52849;DHT22;38714;53.180;5.812;2022-10-30T16:51:58;15.50;99.90
52849;DHT22;38714;53.180;5.812;2022-10-30T16:54:30;15.50;99.90
52849;DHT22;38714;53.180;5.812;2022-10-30T16:56:58;15.50;99.90
52849;DHT22;38714;53.180;5.812;2022-10-30T16:59:32;15.50;99.90
52849;DHT22;38714;53.180;5.812;2022-10-30T17:02:02;15.50;99.90
52849;DHT22;38714;53.180;5.812;2022-10-30T17:04:31;15.50;99.90
52849;DHT22;38714;53.180;5.812;2022-10-30T17:07:15;15.50;99.90
52849;DHT22;38714;53.180;5.812;2022-10-30T17:09:44;15.50;99.90
52849;DHT22;38714;53.180;5.812;2022-10-30T17:12:27;15.50;99.90
52849;DHT22;38714;53.180;5.812;2022-10-30T17:15:02;15.50;99.90
52849;DHT22;38714;53.180;5.812;2022-10-30T17:17:36;15.50;99.90
52849;DHT22;38714;53.180;5.812;2022-10-30T17:22:29;15.50;99.90
52849;DHT22;38714;53.180;5.812;2022-10-30T17:24:55;15.50;99.90
52849;DHT22;38714;53.180;5.812;2022-10-30T17:27:41;15.50;99.90
52849;DHT22;38714;53.180;5.812;2022-10-30T17:32:56;15.40;99.90
52849;DHT22;38714;53.180;5.812;2022-10-30T17:35:21;15.40;99.90
52849;DHT22;38714;53.180;5.812;2022-10-30T17:37:47;15.40;99.90
52849;DHT22;38714;53.180;5.812;2022-10-30T17:40:13;15.40;99.90
52849;DHT22;38714;53.180;5.812;2022-10-30T17:42:39;15.30;99.90
52849;DHT22;38714;53.180;5.812;2022-10-30T17:45:06;15.30;99.90
52849;DHT22;38714;53.180;5.812;2022-10-30T17:47:35;15.30;99.90
52849;DHT22;38714;53.180;5.812;2022-10-30T17:50:00;15.30;99.90
52849;DHT22;38714;53.180;5.812;2022-10-30T17:52:27;15.20;99.90
52849;DHT22;38714;53.180;5.812;2022-10-30T17:54:53;15.30;99.90
52849;DHT22;38714;53.180;5.812;2022-10-30T17:57:19;15.20;99.90
52849;DHT22;38714;53.180;5.812;2022-10-30T17:59:47;15.10;99.90
52849;DHT22;38714;53.180;5.812;2022-10-30T18:02:21;15.10;99.90
52849;DHT22;38714;53.180;5.812;2022-10-30T18:04:47;15.20;99.90
52849;DHT22;38714;53.180;5.812;2022-10-30T18:07:15;15.10;99.90
52849;DHT22;38714;53.180;5.812;2022-10-30T18:09:41;15.10;99.90
52849;DHT22;38714;53.180;5.812;2022-10-30T18:12:14;15.10;99.90
52849;DHT22;38714;53.180;5.812;2022-10-30T18:14:40;15.10;99.90
52849;DHT22;38714;53.180;5.812;2022-10-30T18:17:08;15.10;99.90
52849;DHT22;38714;53.180;5.812;2022-10-30T18:19:34;15.10;99.90
52849;DHT22;38714;53.180;5.812;2022-10-30T18:21:59;15.10;99.90
52849;DHT22;38714;53.180;5.812;2022-10-30T18:24:25;15.00;99.90